createdAt,value
2023-01-26T00:00:36.236Z,64.90
2023-01-26T00:02:37.600Z,59.58
2023-01-26T00:04:38.977Z,59.65
2023-01-26T00:06:40.394Z,58.47
2023-01-26T00:08:44.432Z,53.97
2023-01-26T00:10:50.111Z,60.50
2023-01-26T00:12:51.567Z,52.95
2023-01-26T00:14:53.011Z,60.25
2023-01-26T00:16:54.626Z,55.45
2023-01-26T00:18:56.201Z,55.78
2023-01-26T00:20:59.141Z,57.50
2023-01-26T00:23:00.488Z,54.65
2023-01-26T00:25:01.871Z,55.65
2023-01-26T00:27:03.341Z,59.45
2023-01-26T00:29:04.724Z,62.10
2023-01-26T00:31:10.740Z,56.45
2023-01-26T00:33:12.237Z,62.05
2023-01-26T00:35:13.615Z,57.90
2023-01-26T00:37:15.692Z,48.90
2023-01-26T00:39:17.083Z,54.30
2023-01-26T00:41:37.091Z,57.60
2023-01-26T00:43:38.478Z,56.05
2023-01-26T00:45:39.925Z,57.05
2023-01-26T00:47:41.328Z,57.25
2023-01-26T00:49:42.996Z,56.80
2023-01-26T00:51:44.362Z,57.97
2023-01-26T00:53:45.861Z,54.90
2023-01-26T00:55:47.256Z,57.53
2023-01-26T00:57:49.975Z,55.13
2023-01-26T00:59:51.354Z,51.33
2023-01-26T01:01:53.684Z,56.95
2023-01-26T01:03:55.056Z,49.58
2023-01-26T01:05:56.409Z,57.67
2023-01-26T01:07:58.396Z,54.53
2023-01-26T01:10:00.355Z,55.85
2023-01-26T01:12:01.817Z,56.35
2023-01-26T01:14:03.367Z,52.65
2023-01-26T01:16:06.610Z,51.60
2023-01-26T01:18:07.991Z,57.47
2023-01-26T01:20:10.927Z,53.00
2023-01-26T01:22:12.522Z,64.78
2023-01-26T01:24:14.029Z,55.15
2023-01-26T01:26:16.541Z,49.65
2023-01-26T01:28:17.898Z,55.67
2023-01-26T01:30:19.369Z,57.22
2023-01-26T01:32:21.363Z,51.97
2023-01-26T01:34:23.299Z,52.08
2023-01-26T01:36:25.313Z,62.40
2023-01-26T01:38:27.486Z,52.90
2023-01-26T01:40:28.979Z,57.95
2023-01-26T01:42:30.394Z,58.97
2023-01-26T01:44:34.601Z,53.33
2023-01-26T01:49:11.166Z,52.47
2023-01-26T01:51:18.363Z,50.58
2023-01-26T01:53:27.203Z,57.22
2023-01-26T01:55:29.133Z,49.47
2023-01-26T01:57:44.826Z,54.05
2023-01-26T01:59:54.262Z,58.03
2023-01-26T02:01:56.355Z,54.25
2023-01-26T02:04:01.668Z,52.67
2023-01-26T02:06:21.174Z,54.53
2023-01-26T02:08:27.401Z,50.33
2023-01-26T02:10:30.056Z,50.75
2023-01-26T02:12:34.803Z,52.40
2023-01-26T02:14:36.161Z,43.30
2023-01-26T02:16:39.923Z,48.08
2023-01-26T02:18:41.663Z,48.85
2023-01-26T02:20:59.037Z,50.10
2023-01-26T02:23:18.943Z,55.85
2023-01-26T02:25:38.993Z,49.85
2023-01-26T02:27:40.384Z,47.28
2023-01-26T02:29:42.018Z,50.15
2023-01-26T02:31:43.840Z,41.85
2023-01-26T02:33:45.999Z,39.40
2023-01-26T02:35:47.410Z,46.60
2023-01-26T02:37:48.879Z,53.70
2023-01-26T02:40:02.400Z,45.50
2023-01-26T02:42:22.901Z,47.08
2023-01-26T02:44:25.350Z,42.92
2023-01-26T02:46:26.762Z,49.53
2023-01-26T02:48:47.871Z,50.22
2023-01-26T02:50:49.256Z,45.17
2023-01-26T02:52:50.616Z,45.00
2023-01-26T02:55:11.386Z,37.53
2023-01-26T02:57:12.733Z,45.08
2023-01-26T02:59:14.122Z,44.45
2023-01-26T03:01:15.616Z,40.00
2023-01-26T03:03:23.605Z,36.47
2023-01-26T03:05:28.867Z,42.55
2023-01-26T03:07:30.715Z,42.75
2023-01-26T03:09:32.174Z,47.47
2023-01-26T03:11:41.996Z,42.80
2023-01-26T03:13:43.399Z,37.42
2023-01-26T03:15:52.339Z,37.53
2023-01-26T03:18:21.595Z,44.58
2023-01-26T03:20:41.307Z,37.00
2023-01-26T03:23:01.294Z,41.50
2023-01-26T03:27:28.116Z,42.70
2023-01-26T03:29:30.435Z,36.28
2023-01-26T03:31:31.827Z,45.38
2023-01-26T03:33:33.185Z,43.45
2023-01-26T03:35:34.558Z,37.97
2023-01-26T03:37:36.831Z,42.67
2023-01-26T03:39:56.889Z,42.42
2023-01-26T03:42:17.086Z,41.92
2023-01-26T03:44:36.753Z,48.38
2023-01-26T03:46:56.648Z,45.22
2023-01-26T03:49:16.315Z,42.30
2023-01-26T03:51:36.098Z,50.75
2023-01-26T03:53:56.337Z,45.85
2023-01-26T03:56:16.158Z,45.83
2023-01-26T03:58:17.559Z,45.17
2023-01-26T04:00:19.226Z,42.05
2023-01-26T04:02:38.935Z,43.92
2023-01-26T04:04:58.779Z,43.25
2023-01-26T04:07:18.518Z,45.78
2023-01-26T04:09:20.064Z,40.63
2023-01-26T04:11:21.436Z,45.00
2023-01-26T04:13:42.981Z,46.95
2023-01-26T04:16:02.787Z,49.17
2023-01-26T04:18:26.578Z,56.78
2023-01-26T04:20:46.256Z,50.80
2023-01-26T04:22:47.648Z,43.25
2023-01-26T04:24:48.985Z,46.22
2023-01-26T04:26:50.421Z,43.05
2023-01-26T04:28:51.939Z,52.97
2023-01-26T04:30:53.357Z,56.30
2023-01-26T04:32:54.923Z,48.17
2023-01-26T04:34:56.447Z,54.95
2023-01-26T04:36:57.837Z,50.55
2023-01-26T04:38:59.249Z,49.67
2023-01-26T04:41:00.753Z,51.95
2023-01-26T04:43:02.101Z,48.63
2023-01-26T04:45:03.733Z,48.70
2023-01-26T04:47:05.256Z,51.83
2023-01-26T04:49:06.711Z,54.03
2023-01-26T04:51:20.765Z,49.88
2023-01-26T04:53:22.694Z,45.03
2023-01-26T04:55:24.059Z,50.38
2023-01-26T04:57:25.469Z,52.05
2023-01-26T04:59:27.906Z,46.40
2023-01-26T05:01:29.810Z,53.70
2023-01-26T05:05:58.705Z,53.95
2023-01-26T05:08:00.127Z,48.92
2023-01-26T05:10:01.557Z,54.72
2023-01-26T05:12:22.965Z,53.92
2023-01-26T05:14:24.968Z,53.22
2023-01-26T05:16:26.595Z,55.00
2023-01-26T05:18:28.336Z,53.05
2023-01-26T05:20:29.793Z,50.95
2023-01-26T05:22:31.161Z,50.92
2023-01-26T05:24:32.554Z,55.95
2023-01-26T05:26:34.020Z,54.28
2023-01-26T05:28:36.299Z,51.38
2023-01-26T05:30:37.761Z,51.15
2023-01-26T05:32:39.256Z,51.70
2023-01-26T05:34:40.644Z,52.45
2023-01-26T05:36:42.100Z,51.50
2023-01-26T05:38:43.567Z,55.55
2023-01-26T05:40:45.069Z,53.58
2023-01-26T05:42:46.493Z,55.80
2023-01-26T05:44:47.871Z,52.47
2023-01-26T05:46:49.296Z,53.90
2023-01-26T05:48:50.691Z,53.67
2023-01-26T05:50:52.087Z,51.53
2023-01-26T05:52:53.657Z,48.28
2023-01-26T05:54:55.075Z,53.30
2023-01-26T05:56:57.467Z,50.00
2023-01-26T05:58:58.881Z,48.70
2023-01-26T06:01:04.346Z,51.55
2023-01-26T06:03:05.727Z,54.55
2023-01-26T06:05:08.261Z,52.90
2023-01-26T06:07:09.980Z,52.65
2023-01-26T06:09:11.407Z,51.70
2023-01-26T06:11:12.806Z,42.38
2023-01-26T06:13:14.179Z,55.30
2023-01-26T06:15:15.624Z,49.15
2023-01-26T06:17:18.210Z,57.03
2023-01-26T06:19:19.590Z,48.13
2023-01-26T06:21:21.031Z,52.70
2023-01-26T06:23:22.423Z,51.85
2023-01-26T06:25:23.794Z,48.13
2023-01-26T06:27:25.240Z,53.67
2023-01-26T06:29:26.638Z,44.90
2023-01-26T06:31:29.668Z,56.95
2023-01-26T06:33:34.325Z,47.92
2023-01-26T06:35:36.113Z,47.55
2023-01-26T06:37:37.496Z,49.25
2023-01-26T06:39:38.929Z,47.28
2023-01-26T06:41:42.229Z,50.00
2023-01-26T06:43:48.269Z,49.38
2023-01-26T06:45:49.771Z,53.60
2023-01-26T06:47:52.340Z,59.38
2023-01-26T06:49:54.325Z,54.00
2023-01-26T06:52:04.636Z,52.08
2023-01-26T06:54:06.014Z,52.55
2023-01-26T06:56:07.369Z,51.00
2023-01-26T06:58:08.747Z,52.80
2023-01-26T07:00:12.252Z,54.90
2023-01-26T07:02:19.589Z,47.00
2023-01-26T07:04:21.021Z,50.08
2023-01-26T07:06:22.418Z,43.35
2023-01-26T07:08:24.317Z,42.47
2023-01-26T07:10:25.694Z,46.75
2023-01-26T07:12:38.268Z,48.10
2023-01-26T07:14:39.798Z,49.83
2023-01-26T07:16:41.232Z,48.65
2023-01-26T07:18:42.896Z,47.90
2023-01-26T07:20:44.281Z,44.17
2023-01-26T07:22:45.975Z,51.83
2023-01-26T07:24:47.821Z,46.83
2023-01-26T07:26:49.641Z,46.17
2023-01-26T07:28:51.097Z,53.42
2023-01-26T07:30:58.748Z,54.75
2023-01-26T07:33:00.843Z,53.15
2023-01-26T07:35:02.315Z,49.50
2023-01-26T07:37:05.163Z,49.55
2023-01-26T07:39:08.508Z,49.92
2023-01-26T07:41:13.081Z,47.33
2023-01-26T07:43:15.149Z,51.55
2023-01-26T07:45:18.039Z,53.13
2023-01-26T07:47:20.113Z,44.55
2023-01-26T07:49:21.639Z,49.25
2023-01-26T07:51:23.515Z,56.30
2023-01-26T07:53:27.531Z,45.70
2023-01-26T07:55:29.281Z,51.28
2023-01-26T07:57:30.797Z,53.92
2023-01-26T07:59:32.667Z,53.25
2023-01-26T08:01:34.275Z,62.75
2023-01-26T08:03:36.584Z,52.95
2023-01-26T08:05:38.691Z,46.15
2023-01-26T08:07:40.537Z,59.85
2023-01-26T08:09:41.991Z,52.97
2023-01-26T08:11:43.386Z,54.47
2023-01-26T08:13:45.380Z,51.88
2023-01-26T08:15:46.717Z,54.88
2023-01-26T08:17:48.126Z,51.42
2023-01-26T08:19:49.577Z,48.92
2023-01-26T08:21:53.214Z,49.17
2023-01-26T08:23:56.073Z,49.88
2023-01-26T08:26:01.883Z,56.85
2023-01-26T08:28:03.724Z,49.40
2023-01-26T08:30:06.862Z,56.03
2023-01-26T08:32:09.226Z,55.75
2023-01-26T08:34:10.993Z,53.25
2023-01-26T08:36:14.109Z,55.20
2023-01-26T08:38:15.619Z,57.90
2023-01-26T08:40:17.026Z,57.05
2023-01-26T08:42:19.187Z,58.15
2023-01-26T08:44:21.727Z,57.20
2023-01-26T08:46:23.584Z,57.40
2023-01-26T08:48:25.368Z,60.15
2023-01-26T08:50:27.404Z,56.55
2023-01-26T08:52:28.779Z,54.03
2023-01-26T08:54:30.178Z,56.63
2023-01-26T08:56:31.547Z,54.38
2023-01-26T08:58:33.698Z,50.55
2023-01-26T09:00:35.115Z,50.55
2023-01-26T09:02:36.565Z,49.20
2023-01-26T09:04:38.006Z,48.00
2023-01-26T09:06:39.356Z,50.22
2023-01-26T09:08:40.809Z,51.80
2023-01-26T09:10:45.101Z,49.72
2023-01-26T09:12:46.494Z,43.42
2023-01-26T09:14:47.854Z,48.05
2023-01-26T09:16:49.752Z,48.35
2023-01-26T09:18:52.547Z,48.03
2023-01-26T09:20:55.719Z,46.85
2023-01-26T09:22:57.550Z,52.40
2023-01-26T09:24:59.137Z,49.47
2023-01-26T09:27:00.615Z,46.80
2023-01-26T09:29:02.081Z,53.05
2023-01-26T09:31:05.243Z,46.97
2023-01-26T09:33:07.284Z,46.35
2023-01-26T09:35:14.309Z,50.80
2023-01-26T09:37:20.069Z,47.45
2023-01-26T09:39:21.430Z,44.63
2023-01-26T09:41:36.821Z,42.90
2023-01-26T09:43:51.602Z,49.33
2023-01-26T09:46:19.073Z,46.35
2023-01-26T09:48:37.724Z,48.53
2023-01-26T09:50:51.183Z,47.92
2023-01-26T09:52:58.118Z,49.75
2023-01-26T09:55:04.232Z,45.40
2023-01-26T09:57:46.462Z,46.85
2023-01-26T10:00:21.647Z,45.97
2023-01-26T10:02:37.311Z,46.80
2023-01-26T10:04:44.050Z,49.08
2023-01-26T10:06:46.887Z,48.78
2023-01-26T10:08:50.130Z,43.05
2023-01-26T10:11:05.226Z,40.78
2023-01-26T10:13:06.679Z,37.63
2023-01-26T10:15:39.047Z,41.53
2023-01-26T10:17:44.027Z,39.88
2023-01-26T10:20:01.197Z,46.13
2023-01-26T10:22:12.321Z,42.42
2023-01-26T10:24:17.388Z,48.08
2023-01-26T10:26:22.529Z,43.97
2023-01-26T10:28:28.742Z,40.63
2023-01-26T10:30:30.182Z,44.10
2023-01-26T10:32:32.126Z,36.75
2023-01-26T10:34:33.970Z,32.03
2023-01-26T10:36:35.447Z,33.63
2023-01-26T10:38:36.759Z,40.28
2023-01-26T10:40:45.339Z,41.28
2023-01-26T10:42:59.272Z,41.50
2023-01-26T10:45:05.262Z,41.88
2023-01-26T10:47:16.148Z,44.70
2023-01-26T10:49:18.322Z,36.83
2023-01-26T10:51:32.245Z,41.15
2023-01-26T10:53:33.655Z,38.20
2023-01-26T10:55:37.180Z,37.58
2023-01-26T10:57:41.527Z,37.63
2023-01-26T10:59:58.976Z,33.38
2023-01-26T11:02:19.304Z,33.50
2023-01-26T11:04:20.814Z,28.20
2023-01-26T11:06:28.574Z,36.55
2023-01-26T11:08:40.271Z,34.30
2023-01-26T11:10:52.615Z,34.35
2023-01-26T11:13:18.010Z,31.27
2023-01-26T11:15:21.005Z,29.77
2023-01-26T11:17:29.437Z,38.22
2023-01-26T11:19:44.745Z,35.95
2023-01-26T11:22:08.268Z,36.30
2023-01-26T11:24:21.245Z,34.47
2023-01-26T11:26:34.642Z,36.05
2023-01-26T11:28:50.314Z,32.58
2023-01-26T11:31:00.162Z,34.13
2023-01-26T11:33:18.843Z,38.38
2023-01-26T11:35:23.757Z,33.95
2023-01-26T11:37:46.358Z,32.63
2023-01-26T11:39:56.632Z,38.25
2023-01-26T11:42:07.318Z,35.42
2023-01-26T11:44:28.546Z,34.95
2023-01-26T11:46:53.329Z,36.03
2023-01-26T11:49:27.536Z,35.00
2023-01-26T11:51:51.883Z,37.95
2023-01-26T11:53:56.290Z,35.65
2023-01-26T11:56:35.780Z,35.78
2023-01-26T11:58:44.860Z,28.08
2023-01-26T12:01:07.133Z,36.03
2023-01-26T12:03:19.708Z,31.35
2023-01-26T12:05:28.991Z,32.63
2023-01-26T12:07:51.207Z,31.58
2023-01-26T12:09:53.394Z,33.95
2023-01-26T12:12:05.149Z,30.02
2023-01-26T12:14:28.035Z,34.63
2023-01-26T12:16:51.143Z,34.30
2023-01-26T12:19:39.772Z,30.20
2023-01-26T12:21:45.639Z,33.05
2023-01-26T12:24:02.560Z,30.25
2023-01-26T12:26:12.147Z,32.50
2023-01-26T12:28:36.964Z,25.10
2023-01-26T12:30:53.767Z,24.33
2023-01-26T12:32:56.429Z,24.60
2023-01-26T12:34:58.120Z,20.40
2023-01-26T12:37:05.252Z,22.30
2023-01-26T12:39:32.938Z,27.38
2023-01-26T12:41:59.414Z,22.90
2023-01-26T12:44:34.577Z,22.50
2023-01-26T12:46:41.301Z,20.65
2023-01-26T12:48:52.579Z,18.48
2023-01-26T12:51:00.546Z,22.33
2023-01-26T12:53:37.868Z,28.75
2023-01-26T12:55:56.652Z,99.07
2023-01-26T12:57:59.743Z,19.00
2023-01-26T13:02:37.883Z,19.58
2023-01-26T13:04:40.729Z,15.75
2023-01-26T13:06:42.944Z,14.38
2023-01-26T13:08:57.681Z,13.23
2023-01-26T13:11:01.456Z,14.18
2023-01-26T13:13:18.153Z,14.38
2023-01-26T13:15:22.405Z,12.77
2023-01-26T13:17:25.574Z,12.82
2023-01-26T13:19:43.180Z,11.73
2023-01-26T13:21:45.145Z,15.15
2023-01-26T13:23:46.698Z,15.05
2023-01-26T13:26:12.882Z,16.75
2023-01-26T13:30:42.566Z,16.30
2023-01-26T13:32:46.758Z,17.02
2023-01-26T13:34:57.310Z,13.80
2023-01-26T13:37:16.036Z,110.57
2023-01-26T13:39:46.702Z,63.90
2023-01-26T13:41:48.173Z,15.82
2023-01-26T13:43:54.593Z,13.40
2023-01-26T13:45:55.918Z,14.88
2023-01-26T13:47:58.558Z,16.40
2023-01-26T13:49:59.908Z,11.65
2023-01-26T13:52:02.597Z,13.77
2023-01-26T13:54:06.732Z,12.35
2023-01-26T13:56:27.637Z,12.20
2023-01-26T13:58:29.059Z,11.85
2023-01-26T14:00:30.574Z,12.60
2023-01-26T14:02:34.645Z,9.85
2023-01-26T14:04:37.684Z,12.05
2023-01-26T14:06:39.589Z,12.38
2023-01-26T14:08:48.540Z,13.13
2023-01-26T14:10:50.984Z,11.02
2023-01-26T14:12:56.654Z,63.92
2023-01-26T14:15:01.542Z,38.17
2023-01-26T14:17:25.211Z,13.90
2023-01-26T14:19:28.925Z,11.00
2023-01-26T14:21:32.416Z,12.05
2023-01-26T14:23:36.552Z,10.20
2023-01-26T14:25:38.951Z,10.80
2023-01-26T14:27:42.180Z,9.68
2023-01-26T14:29:43.595Z,11.10
2023-01-26T14:31:46.923Z,9.02
2023-01-26T14:33:57.142Z,11.25
2023-01-26T14:36:04.062Z,8.20
2023-01-26T14:38:16.176Z,8.60
2023-01-26T14:40:21.725Z,8.02
2023-01-26T14:42:23.171Z,8.23
2023-01-26T14:44:24.908Z,8.10
2023-01-26T14:46:46.512Z,9.40
2023-01-26T14:48:53.490Z,8.07
2023-01-26T14:50:55.275Z,7.60
2023-01-26T14:52:57.029Z,9.02
2023-01-26T14:55:03.498Z,9.55
2023-01-26T14:57:09.309Z,9.05
2023-01-26T14:59:22.219Z,11.32
2023-01-26T15:01:25.768Z,12.73
2023-01-26T15:03:37.451Z,10.45
2023-01-26T15:05:42.050Z,12.57
2023-01-26T15:07:45.002Z,11.05
2023-01-26T15:09:54.729Z,15.07
2023-01-26T15:12:17.233Z,11.63
2023-01-26T15:14:49.426Z,12.25
2023-01-26T15:16:54.041Z,12.38
2023-01-26T15:19:04.743Z,12.93
2023-01-26T15:21:06.084Z,10.90
2023-01-26T15:23:32.569Z,13.50
2023-01-26T15:25:34.402Z,13.18
2023-01-26T15:27:36.950Z,58.10
2023-01-26T15:29:38.411Z,18.85
2023-01-26T15:31:42.174Z,20.23
2023-01-26T15:33:53.552Z,19.63
2023-01-26T15:35:58.577Z,17.98
2023-01-26T15:38:11.663Z,22.33
2023-01-26T15:40:15.358Z,17.85
2023-01-26T15:42:24.314Z,15.13
2023-01-26T15:44:25.680Z,16.30
2023-01-26T15:46:27.137Z,15.00
2023-01-26T15:48:31.614Z,20.90
2023-01-26T15:50:33.060Z,19.77
2023-01-26T15:52:34.461Z,20.77
2023-01-26T15:54:35.817Z,24.05
2023-01-26T15:56:37.318Z,23.70
2023-01-26T15:58:39.249Z,21.92
2023-01-26T16:00:40.705Z,19.25
2023-01-26T16:02:42.078Z,15.80
2023-01-26T16:04:44.300Z,28.70
2023-01-26T16:06:45.841Z,32.45
2023-01-26T16:08:47.431Z,28.25
2023-01-26T16:10:48.953Z,20.70
2023-01-26T16:12:50.933Z,48.20
2023-01-26T16:14:52.315Z,28.85
2023-01-26T16:16:53.732Z,89.85
2023-01-26T16:18:55.952Z,28.17
2023-01-26T16:20:59.935Z,24.45
2023-01-26T16:23:01.307Z,25.10
2023-01-26T16:25:02.681Z,27.08
2023-01-26T16:27:05.674Z,26.90
2023-01-26T16:29:07.094Z,31.52
2023-01-26T16:31:21.551Z,26.98
2023-01-26T16:33:24.400Z,29.17
2023-01-26T16:35:26.276Z,32.83
2023-01-26T16:37:27.667Z,25.50
2023-01-26T16:39:29.072Z,27.55
2023-01-26T16:41:32.646Z,28.73
2023-01-26T16:43:34.116Z,29.58
2023-01-26T16:45:35.514Z,31.85
2023-01-26T16:47:36.884Z,31.38
2023-01-26T16:49:38.474Z,35.42
2023-01-26T16:51:42.430Z,37.60
2023-01-26T16:53:44.256Z,40.70
2023-01-26T16:55:45.741Z,31.10
2023-01-26T16:57:49.799Z,39.20
2023-01-26T16:59:51.293Z,32.33
2023-01-26T17:01:52.786Z,34.80
2023-01-26T17:03:55.906Z,37.67
2023-01-26T17:05:57.298Z,46.35
2023-01-26T17:07:58.675Z,44.78
2023-01-26T17:10:00.021Z,153.43
2023-01-26T17:12:01.429Z,254.80
2023-01-26T17:14:03.599Z,37.28
2023-01-26T17:16:05.466Z,53.17
2023-01-26T17:18:07.070Z,38.70
2023-01-26T17:20:18.744Z,42.97
2023-01-26T17:22:20.909Z,41.50
2023-01-26T17:24:22.314Z,39.60
2023-01-26T17:26:24.014Z,43.00
2023-01-26T17:28:27.106Z,47.72
2023-01-26T17:30:28.525Z,35.85
2023-01-26T17:32:30.786Z,38.65
2023-01-26T17:34:32.221Z,44.10
2023-01-26T17:36:33.725Z,43.88
2023-01-26T17:38:35.638Z,37.70
2023-01-26T17:40:37.314Z,38.72
2023-01-26T17:42:38.963Z,36.70
2023-01-26T17:44:40.443Z,41.45
2023-01-26T17:46:41.810Z,31.77
2023-01-26T17:48:45.265Z,41.63
2023-01-26T17:50:50.501Z,35.10
2023-01-26T17:52:51.894Z,33.33
2023-01-26T17:54:53.385Z,39.50
2023-01-26T17:56:55.473Z,39.05
2023-01-26T17:58:57.405Z,34.47
2023-01-26T18:00:58.948Z,33.42
2023-01-26T18:03:00.411Z,35.50
2023-01-26T18:05:01.763Z,33.88
2023-01-26T18:07:03.783Z,33.42
2023-01-26T18:09:06.530Z,30.52
2023-01-26T18:11:11.277Z,37.45
2023-01-26T18:13:13.006Z,29.48
2023-01-26T18:15:14.446Z,31.67
2023-01-26T18:17:15.826Z,34.15
2023-01-26T18:19:17.228Z,27.55
2023-01-26T18:21:24.583Z,34.08
2023-01-26T18:23:25.974Z,30.67
2023-01-26T18:25:27.335Z,41.17
2023-01-26T18:27:28.753Z,36.88
2023-01-26T18:29:30.277Z,43.38
2023-01-26T18:31:34.608Z,42.90
2023-01-26T18:33:36.425Z,44.85
2023-01-26T18:35:37.898Z,46.88
2023-01-26T18:37:39.357Z,45.15
2023-01-26T18:39:40.753Z,46.65
2023-01-26T18:41:43.276Z,45.88
2023-01-26T18:43:44.903Z,47.80
2023-01-26T18:45:46.490Z,36.58
2023-01-26T18:47:49.440Z,40.83
2023-01-26T18:49:50.806Z,33.70
2023-01-26T18:51:52.336Z,32.20
2023-01-26T18:53:53.767Z,31.20
2023-01-26T18:56:05.621Z,33.15
2023-01-26T18:58:07.026Z,30.73
2023-01-26T19:00:09.067Z,31.05
2023-01-26T19:02:13.521Z,31.92
2023-01-26T19:04:17.870Z,38.17
2023-01-26T19:06:20.353Z,33.00
2023-01-26T19:08:24.553Z,41.35
2023-01-26T19:10:26.010Z,47.22
2023-01-26T19:12:27.469Z,50.33
2023-01-26T19:14:29.723Z,47.45
2023-01-26T19:16:31.887Z,42.58
2023-01-26T19:18:33.428Z,47.95
2023-01-26T19:20:34.903Z,48.75
2023-01-26T19:22:36.624Z,48.70
2023-01-26T19:24:37.978Z,56.95
2023-01-26T19:26:39.394Z,54.92
2023-01-26T19:28:41.897Z,57.88
2023-01-26T19:30:44.273Z,50.33
2023-01-26T19:33:07.238Z,57.33
2023-01-26T19:35:09.121Z,45.30
2023-01-26T19:37:10.544Z,50.05
2023-01-26T19:39:13.638Z,54.05
2023-01-26T19:41:15.607Z,57.58
2023-01-26T19:43:19.051Z,58.45
2023-01-26T19:45:20.559Z,53.50
2023-01-26T19:47:22.038Z,63.58
2023-01-26T19:49:23.472Z,53.67
2023-01-26T19:51:26.633Z,55.15
2023-01-26T19:53:28.867Z,60.65
2023-01-26T19:55:32.288Z,54.72
2023-01-26T19:57:34.141Z,58.65
2023-01-26T19:59:35.565Z,62.72
2023-01-26T20:01:37.110Z,57.53
2023-01-26T20:03:39.303Z,53.40
2023-01-26T20:05:40.674Z,47.75
2023-01-26T20:07:42.841Z,53.08
2023-01-26T20:09:44.246Z,59.63
2023-01-26T20:11:45.616Z,55.33
2023-01-26T20:13:47.040Z,48.20
2023-01-26T20:15:48.647Z,45.70
2023-01-26T20:17:50.295Z,44.38
2023-01-26T20:19:51.877Z,42.38
2023-01-26T20:21:53.533Z,35.10
2023-01-26T20:23:56.206Z,41.67
2023-01-26T20:26:05.913Z,39.20
2023-01-26T20:28:07.355Z,43.20
2023-01-26T20:30:09.516Z,38.40
2023-01-26T20:32:11.040Z,42.67
2023-01-26T20:34:13.753Z,41.78
2023-01-26T20:36:18.378Z,38.58
2023-01-26T20:38:19.749Z,37.55
2023-01-26T20:40:21.290Z,40.15
2023-01-26T20:42:22.686Z,35.50
2023-01-26T20:44:24.164Z,36.65
2023-01-26T20:46:27.683Z,32.90
2023-01-26T20:48:29.092Z,36.88
2023-01-26T20:50:35.979Z,35.20
2023-01-26T20:52:38.549Z,37.08
2023-01-26T20:54:39.964Z,29.55
2023-01-26T20:56:42.039Z,32.13
2023-01-26T20:58:44.004Z,33.20
2023-01-26T21:00:45.408Z,30.20
2023-01-26T21:02:46.785Z,30.48
2023-01-26T21:04:48.369Z,33.70
2023-01-26T21:06:49.851Z,38.65
2023-01-26T21:08:54.307Z,36.28
2023-01-26T21:10:56.126Z,34.83
2023-01-26T21:12:57.541Z,41.35
2023-01-26T21:14:58.949Z,44.45
2023-01-26T21:17:00.485Z,46.47
2023-01-26T21:19:01.945Z,46.30
2023-01-26T21:21:06.867Z,44.63
2023-01-26T21:23:08.233Z,45.47
2023-01-26T21:25:10.698Z,45.65
2023-01-26T21:27:12.098Z,44.65
2023-01-26T21:29:16.013Z,43.78
2023-01-26T21:31:18.527Z,41.17
2023-01-26T21:33:19.961Z,39.90
2023-01-26T21:35:21.348Z,35.78
2023-01-26T21:37:22.772Z,38.42
2023-01-26T21:39:24.175Z,45.60
2023-01-26T21:41:47.175Z,37.72
2023-01-26T21:43:48.666Z,34.33
2023-01-26T21:45:52.799Z,35.85
2023-01-26T21:48:12.550Z,42.10
2023-01-26T21:50:14.176Z,41.55
2023-01-26T21:52:34.122Z,34.30
2023-01-26T21:56:37.238Z,34.30
2023-01-26T21:59:02.392Z,36.22
2023-01-26T22:01:08.616Z,37.60
2023-01-26T22:03:10.191Z,36.95
2023-01-26T22:05:11.589Z,38.78
2023-01-26T22:07:13.099Z,41.63
2023-01-26T22:09:16.615Z,44.42
2023-01-26T22:11:18.136Z,37.20
2023-01-26T22:13:19.754Z,37.67
2023-01-26T22:15:21.145Z,37.60
2023-01-26T22:17:22.576Z,41.95
2023-01-26T22:19:23.991Z,40.13
2023-01-26T22:21:26.269Z,39.90
2023-01-26T22:23:34.268Z,33.90
2023-01-26T22:25:40.077Z,40.90
2023-01-26T22:27:41.453Z,34.83
2023-01-26T22:29:42.852Z,42.33
2023-01-26T22:31:44.400Z,33.22
2023-01-26T22:33:46.651Z,40.20
2023-01-26T22:35:48.005Z,31.88
2023-01-26T22:37:49.710Z,35.35
2023-01-26T22:39:51.075Z,30.23
2023-01-26T22:41:52.661Z,33.97
2023-01-26T22:43:56.899Z,28.38
2023-01-26T22:46:04.397Z,34.92
2023-01-26T22:48:06.774Z,29.52
2023-01-26T22:50:10.260Z,34.05
2023-01-26T22:52:11.733Z,30.50
2023-01-26T22:54:13.107Z,29.60
2023-01-26T22:56:15.066Z,25.65
2023-01-26T22:58:16.416Z,31.60
2023-01-26T23:00:17.898Z,26.45
2023-01-26T23:02:19.242Z,23.88
2023-01-26T23:04:20.667Z,29.58
2023-01-26T23:06:22.644Z,35.47
2023-01-26T23:08:24.065Z,27.92
2023-01-26T23:10:25.518Z,34.53
2023-01-26T23:12:26.982Z,27.98
2023-01-26T23:14:29.834Z,26.27
2023-01-26T23:16:31.261Z,25.45
2023-01-26T23:18:32.796Z,28.58
2023-01-26T23:20:34.169Z,28.52
2023-01-26T23:22:35.547Z,26.38
2023-01-26T23:24:36.939Z,21.58
2023-01-26T23:26:38.536Z,28.85
2023-01-26T23:28:42.365Z,24.65
2023-01-26T23:30:43.790Z,30.23
2023-01-26T23:32:45.193Z,26.83
2023-01-26T23:34:46.588Z,24.73
2023-01-26T23:36:47.955Z,25.70
2023-01-26T23:38:49.897Z,21.67
2023-01-26T23:40:52.133Z,30.10
2023-01-26T23:43:06.703Z,25.33
2023-01-26T23:45:12.055Z,25.75
2023-01-26T23:47:13.478Z,23.50
2023-01-26T23:49:14.897Z,21.85
2023-01-26T23:51:19.717Z,20.33
2023-01-26T23:53:21.161Z,22.30
2023-01-26T23:55:23.070Z,24.20
2023-01-26T23:57:24.505Z,19.08
2023-01-26T23:59:25.863Z,26.65
